sensor_id;sensor_type;location;lat;lon;timestamp;temperature;humidity
7502;DHT22;3792;47.740;7.606;2023-03-01T00:01:00;-1.00;99.90
7502;DHT22;3792;47.740;7.606;2023-03-01T00:03:27;-1.00;99.90
7502;DHT22;3792;47.740;7.606;2023-03-01T00:05:54;-1.00;99.90
7502;DHT22;3792;47.740;7.606;2023-03-01T00:08:22;-1.00;99.90
7502;DHT22;3792;47.740;7.606;2023-03-01T00:10:49;-1.00;99.90
7502;DHT22;3792;47.740;7.606;2023-03-01T00:13:16;-1.00;99.90
7502;DHT22;3792;47.740;7.606;2023-03-01T00:15:43;-1.10;99.90
7502;DHT22;3792;47.740;7.606;2023-03-01T00:18:10;-1.20;99.90
7502;DHT22;3792;47.740;7.606;2023-03-01T00:20:37;-1.40;99.90
7502;DHT22;3792;47.740;7.606;2023-03-01T00:23:04;-1.40;99.90
7502;DHT22;3792;47.740;7.606;2023-03-01T00:25:33;-1.40;99.90
7502;DHT22;3792;47.740;7.606;2023-03-01T00:28:00;-1.40;99.90
7502;DHT22;3792;47.740;7.606;2023-03-01T00:30:27;-1.40;99.90
7502;DHT22;3792;47.740;7.606;2023-03-01T00:32:54;-1.40;99.90
7502;DHT22;3792;47.740;7.606;2023-03-01T00:35:21;-1.40;99.90
7502;DHT22;3792;47.740;7.606;2023-03-01T00:37:48;-1.30;99.90
7502;DHT22;3792;47.740;7.606;2023-03-01T00:40:19;-1.40;99.90
7502;DHT22;3792;47.740;7.606;2023-03-01T00:42:47;-1.40;99.90
7502;DHT22;3792;47.740;7.606;2023-03-01T00:45:14;-1.30;99.90
7502;DHT22;3792;47.740;7.606;2023-03-01T00:47:41;-1.30;99.90
7502;DHT22;3792;47.740;7.606;2023-03-01T00:50:10;-1.30;99.90
7502;DHT22;3792;47.740;7.606;2023-03-01T00:52:37;-1.40;99.90
7502;DHT22;3792;47.740;7.606;2023-03-01T00:55:05;-1.50;99.90
7502;DHT22;3792;47.740;7.606;2023-03-01T00:57:33;-1.60;99.90
7502;DHT22;3792;47.740;7.606;2023-03-01T01:00:02;-1.60;99.90
7502;DHT22;3792;47.740;7.606;2023-03-01T01:02:31;-1.60;99.90
7502;DHT22;3792;47.740;7.606;2023-03-01T01:04:58;-1.60;99.90
7502;DHT22;3792;47.740;7.606;2023-03-01T01:07:26;-1.70;99.90
7502;DHT22;3792;47.740;7.606;2023-03-01T01:09:53;-1.60;99.90
7502;DHT22;3792;47.740;7.606;2023-03-01T01:12:20;-1.70;99.90
7502;DHT22;3792;47.740;7.606;2023-03-01T01:14:48;-1.70;99.90
7502;DHT22;3792;47.740;7.606;2023-03-01T01:17:16;-1.80;99.90
7502;DHT22;3792;47.740;7.606;2023-03-01T01:19:43;-1.80;99.90
7502;DHT22;3792;47.740;7.606;2023-03-01T01:22:10;-1.80;99.90
7502;DHT22;3792;47.740;7.606;2023-03-01T01:24:37;-1.80;99.90
7502;DHT22;3792;47.740;7.606;2023-03-01T01:27:04;-1.80;99.90
7502;DHT22;3792;47.740;7.606;2023-03-01T01:29:32;-1.80;99.90
7502;DHT22;3792;47.740;7.606;2023-03-01T01:31:59;-1.90;99.90
7502;DHT22;3792;47.740;7.606;2023-03-01T01:34:28;-1.90;99.90
7502;DHT22;3792;47.740;7.606;2023-03-01T01:36:55;-1.80;99.90
7502;DHT22;3792;47.740;7.606;2023-03-01T01:39:22;-1.90;99.90
7502;DHT22;3792;47.740;7.606;2023-03-01T01:41:50;-2.00;99.90
7502;DHT22;3792;47.740;7.606;2023-03-01T01:44:19;-2.00;99.90
7502;DHT22;3792;47.740;7.606;2023-03-01T01:46:52;-1.90;99.90
7502;DHT22;3792;47.740;7.606;2023-03-01T01:49:29;-1.90;99.90
7502;DHT22;3792;47.740;7.606;2023-03-01T01:52:02;-1.90;99.90
7502;DHT22;3792;47.740;7.606;2023-03-01T01:54:38;-1.90;99.90
7502;DHT22;3792;47.740;7.606;2023-03-01T01:57:10;-2.00;99.90
7502;DHT22;3792;47.740;7.606;2023-03-01T01:59:39;-2.00;99.90
7502;DHT22;3792;47.740;7.606;2023-03-01T02:02:08;-2.10;99.90
7502;DHT22;3792;47.740;7.606;2023-03-01T02:04:36;-2.10;99.90
7502;DHT22;3792;47.740;7.606;2023-03-01T02:07:08;-2.10;99.90
7502;DHT22;3792;47.740;7.606;2023-03-01T02:09:37;-2.10;99.90
7502;DHT22;3792;47.740;7.606;2023-03-01T02:12:05;-2.10;99.90
7502;DHT22;3792;47.740;7.606;2023-03-01T02:14:32;-2.20;99.90
7502;DHT22;3792;47.740;7.606;2023-03-01T02:16:59;-2.20;99.90
7502;DHT22;3792;47.740;7.606;2023-03-01T02:19:37;-2.10;99.90
7502;DHT22;3792;47.740;7.606;2023-03-01T02:22:13;-2.00;99.90
7502;DHT22;3792;47.740;7.606;2023-03-01T02:24:49;-2.00;99.90
7502;DHT22;3792;47.740;7.606;2023-03-01T02:27:21;-1.90;99.90
7502;DHT22;3792;47.740;7.606;2023-03-01T02:29:51;-1.90;99.90
7502;DHT22;3792;47.740;7.606;2023-03-01T02:32:20;-2.00;99.90
7502;DHT22;3792;47.740;7.606;2023-03-01T02:34:51;-2.00;99.90
7502;DHT22;3792;47.740;7.606;2023-03-01T02:37:19;-2.10;99.90
7502;DHT22;3792;47.740;7.606;2023-03-01T02:39:53;-2.00;99.90
7502;DHT22;3792;47.740;7.606;2023-03-01T02:42:26;-2.00;99.90
7502;DHT22;3792;47.740;7.606;2023-03-01T02:44:56;-2.00;99.90
7502;DHT22;3792;47.740;7.606;2023-03-01T02:47:23;-2.10;99.90
7502;DHT22;3792;47.740;7.606;2023-03-01T02:49:50;-2.10;99.90
7502;DHT22;3792;47.740;7.606;2023-03-01T02:52:26;-2.10;99.90
7502;DHT22;3792;47.740;7.606;2023-03-01T02:54:59;-2.10;99.90
7502;DHT22;3792;47.740;7.606;2023-03-01T02:57:28;-2.20;99.90
7502;DHT22;3792;47.740;7.606;2023-03-01T03:00:02;-2.20;99.90
7502;DHT22;3792;47.740;7.606;2023-03-01T03:02:33;-2.20;99.90
7502;DHT22;3792;47.740;7.606;2023-03-01T03:05:09;-2.20;99.90
7502;DHT22;3792;47.740;7.606;2023-03-01T03:07:37;-2.30;99.90
7502;DHT22;3792;47.740;7.606;2023-03-01T03:10:07;-2.40;99.90
7502;DHT22;3792;47.740;7.606;2023-03-01T03:12:36;-2.50;99.90
7502;DHT22;3792;47.740;7.606;2023-03-01T03:15:07;-2.50;99.90
7502;DHT22;3792;47.740;7.606;2023-03-01T03:17:36;-2.50;99.90
7502;DHT22;3792;47.740;7.606;2023-03-01T03:20:04;-2.50;99.90
7502;DHT22;3792;47.740;7.606;2023-03-01T03:22:31;-2.50;99.90
7502;DHT22;3792;47.740;7.606;2023-03-01T03:24:59;-2.50;99.90
7502;DHT22;3792;47.740;7.606;2023-03-01T03:27:27;-2.50;99.90
7502;DHT22;3792;47.740;7.606;2023-03-01T03:29:55;-2.40;99.90
7502;DHT22;3792;47.740;7.606;2023-03-01T03:32:23;-2.40;99.90
7502;DHT22;3792;47.740;7.606;2023-03-01T03:34:50;-2.50;99.90
7502;DHT22;3792;47.740;7.606;2023-03-01T03:37:17;-2.60;99.90
7502;DHT22;3792;47.740;7.606;2023-03-01T03:39:59;-2.50;99.90
7502;DHT22;3792;47.740;7.606;2023-03-01T03:42:26;-2.50;99.90
7502;DHT22;3792;47.740;7.606;2023-03-01T03:44:53;-2.40;99.90
7502;DHT22;3792;47.740;7.606;2023-03-01T03:47:20;-2.40;99.90
7502;DHT22;3792;47.740;7.606;2023-03-01T03:49:48;-2.40;99.90
7502;DHT22;3792;47.740;7.606;2023-03-01T03:52:15;-2.40;99.90
7502;DHT22;3792;47.740;7.606;2023-03-01T03:54:42;-2.40;99.90
7502;DHT22;3792;47.740;7.606;2023-03-01T03:57:09;-2.50;99.90
7502;DHT22;3792;47.740;7.606;2023-03-01T03:59:36;-2.50;99.90
7502;DHT22;3792;47.740;7.606;2023-03-01T04:02:03;-2.40;99.90
7502;DHT22;3792;47.740;7.606;2023-03-01T04:04:31;-2.50;99.90
7502;DHT22;3792;47.740;7.606;2023-03-01T04:06:59;-2.50;99.90
7502;DHT22;3792;47.740;7.606;2023-03-01T04:09:26;-2.60;99.90
7502;DHT22;3792;47.740;7.606;2023-03-01T04:11:55;-2.70;99.90
7502;DHT22;3792;47.740;7.606;2023-03-01T04:14:22;-2.70;99.90
7502;DHT22;3792;47.740;7.606;2023-03-01T04:16:49;-2.70;99.90
7502;DHT22;3792;47.740;7.606;2023-03-01T04:19:16;-2.60;99.90
7502;DHT22;3792;47.740;7.606;2023-03-01T04:21:43;-2.70;99.90
7502;DHT22;3792;47.740;7.606;2023-03-01T04:24:12;-2.80;99.90
7502;DHT22;3792;47.740;7.606;2023-03-01T04:26:39;-2.80;99.90
7502;DHT22;3792;47.740;7.606;2023-03-01T04:29:06;-2.70;99.90
7502;DHT22;3792;47.740;7.606;2023-03-01T04:31:33;-2.70;99.90
7502;DHT22;3792;47.740;7.606;2023-03-01T04:34:00;-2.80;99.90
7502;DHT22;3792;47.740;7.606;2023-03-01T04:36:28;-2.80;99.90
7502;DHT22;3792;47.740;7.606;2023-03-01T04:38:56;-2.90;99.90
7502;DHT22;3792;47.740;7.606;2023-03-01T04:41:25;-3.00;99.90
7502;DHT22;3792;47.740;7.606;2023-03-01T04:43:52;-3.00;99.90
7502;DHT22;3792;47.740;7.606;2023-03-01T04:46:20;-2.90;99.90
7502;DHT22;3792;47.740;7.606;2023-03-01T04:48:47;-3.00;99.90
7502;DHT22;3792;47.740;7.606;2023-03-01T04:51:15;-3.00;99.90
7502;DHT22;3792;47.740;7.606;2023-03-01T04:53:44;-2.90;99.90
7502;DHT22;3792;47.740;7.606;2023-03-01T04:56:11;-2.80;99.90
7502;DHT22;3792;47.740;7.606;2023-03-01T04:58:40;-2.80;99.90
7502;DHT22;3792;47.740;7.606;2023-03-01T05:01:09;-2.80;99.90
7502;DHT22;3792;47.740;7.606;2023-03-01T05:03:41;-2.80;99.90
7502;DHT22;3792;47.740;7.606;2023-03-01T05:06:09;-2.90;99.90
7502;DHT22;3792;47.740;7.606;2023-03-01T05:08:37;-3.00;99.90
7502;DHT22;3792;47.740;7.606;2023-03-01T05:11:04;-3.00;99.90
7502;DHT22;3792;47.740;7.606;2023-03-01T05:13:34;-3.00;99.90
7502;DHT22;3792;47.740;7.606;2023-03-01T05:16:04;-3.00;99.90
7502;DHT22;3792;47.740;7.606;2023-03-01T05:18:33;-3.00;99.90
7502;DHT22;3792;47.740;7.606;2023-03-01T05:21:03;-2.90;99.90
7502;DHT22;3792;47.740;7.606;2023-03-01T05:23:31;-2.90;99.90
7502;DHT22;3792;47.740;7.606;2023-03-01T05:25:58;-2.90;99.90
7502;DHT22;3792;47.740;7.606;2023-03-01T05:28:26;-2.80;99.90
7502;DHT22;3792;47.740;7.606;2023-03-01T05:30:53;-2.70;99.90
7502;DHT22;3792;47.740;7.606;2023-03-01T05:33:22;-2.70;99.90
7502;DHT22;3792;47.740;7.606;2023-03-01T05:35:50;-2.80;99.90
7502;DHT22;3792;47.740;7.606;2023-03-01T05:38:19;-2.80;99.90
7502;DHT22;3792;47.740;7.606;2023-03-01T05:40:48;-2.80;99.90
7502;DHT22;3792;47.740;7.606;2023-03-01T05:43:16;-2.80;99.90
7502;DHT22;3792;47.740;7.606;2023-03-01T05:45:44;-2.90;99.90
7502;DHT22;3792;47.740;7.606;2023-03-01T05:48:11;-2.90;99.90
7502;DHT22;3792;47.740;7.606;2023-03-01T05:50:41;-2.90;99.90
7502;DHT22;3792;47.740;7.606;2023-03-01T05:53:11;-2.90;99.90
7502;DHT22;3792;47.740;7.606;2023-03-01T05:55:39;-2.90;99.90
7502;DHT22;3792;47.740;7.606;2023-03-01T05:58:09;-3.00;99.90
7502;DHT22;3792;47.740;7.606;2023-03-01T06:00:36;-3.10;99.90
7502;DHT22;3792;47.740;7.606;2023-03-01T06:03:03;-3.10;99.90
7502;DHT22;3792;47.740;7.606;2023-03-01T06:05:30;-3.20;99.90
7502;DHT22;3792;47.740;7.606;2023-03-01T06:08:00;-3.20;99.90
7502;DHT22;3792;47.740;7.606;2023-03-01T06:10:28;-3.20;99.90
7502;DHT22;3792;47.740;7.606;2023-03-01T06:12:55;-3.20;99.90
7502;DHT22;3792;47.740;7.606;2023-03-01T06:15:23;-3.10;99.90
7502;DHT22;3792;47.740;7.606;2023-03-01T06:17:50;-3.10;99.90
7502;DHT22;3792;47.740;7.606;2023-03-01T06:20:19;-3.10;99.90
7502;DHT22;3792;47.740;7.606;2023-03-01T06:22:47;-3.00;99.90
7502;DHT22;3792;47.740;7.606;2023-03-01T06:25:17;-3.10;99.90
7502;DHT22;3792;47.740;7.606;2023-03-01T06:27:45;-3.10;99.90
7502;DHT22;3792;47.740;7.606;2023-03-01T06:30:16;-3.00;99.90
7502;DHT22;3792;47.740;7.606;2023-03-01T06:32:44;-2.90;99.90
7502;DHT22;3792;47.740;7.606;2023-03-01T06:35:12;-2.90;99.90
7502;DHT22;3792;47.740;7.606;2023-03-01T06:37:42;-2.70;99.90
7502;DHT22;3792;47.740;7.606;2023-03-01T06:40:11;-2.60;99.90
7502;DHT22;3792;47.740;7.606;2023-03-01T06:42:47;-2.60;99.90
7502;DHT22;3792;47.740;7.606;2023-03-01T06:45:15;-2.50;99.90
7502;DHT22;3792;47.740;7.606;2023-03-01T06:47:42;-2.40;99.90
7502;DHT22;3792;47.740;7.606;2023-03-01T06:50:10;-2.40;99.90
7502;DHT22;3792;47.740;7.606;2023-03-01T06:52:37;-2.40;99.90
7502;DHT22;3792;47.740;7.606;2023-03-01T06:55:05;-2.30;99.90
7502;DHT22;3792;47.740;7.606;2023-03-01T06:57:33;-2.50;99.90
7502;DHT22;3792;47.740;7.606;2023-03-01T07:00:01;-2.70;99.90
7502;DHT22;3792;47.740;7.606;2023-03-01T07:02:28;-2.60;99.90
7502;DHT22;3792;47.740;7.606;2023-03-01T07:04:56;-2.60;99.90
7502;DHT22;3792;47.740;7.606;2023-03-01T07:07:24;-2.50;99.90
7502;DHT22;3792;47.740;7.606;2023-03-01T07:09:51;-2.40;99.90
7502;DHT22;3792;47.740;7.606;2023-03-01T07:12:18;-2.30;99.90
7502;DHT22;3792;47.740;7.606;2023-03-01T07:14:45;-2.20;99.90
7502;DHT22;3792;47.740;7.606;2023-03-01T07:17:14;-2.10;99.90
7502;DHT22;3792;47.740;7.606;2023-03-01T07:19:41;-2.10;99.90
7502;DHT22;3792;47.740;7.606;2023-03-01T07:22:08;-2.00;99.90
7502;DHT22;3792;47.740;7.606;2023-03-01T07:24:35;-1.90;99.90
7502;DHT22;3792;47.740;7.606;2023-03-01T07:27:02;-1.80;99.90
7502;DHT22;3792;47.740;7.606;2023-03-01T07:29:29;-1.70;99.90
7502;DHT22;3792;47.740;7.606;2023-03-01T07:31:56;-1.60;99.90
7502;DHT22;3792;47.740;7.606;2023-03-01T07:34:25;-1.50;99.90
7502;DHT22;3792;47.740;7.606;2023-03-01T07:36:52;-1.40;99.90
7502;DHT22;3792;47.740;7.606;2023-03-01T07:39:19;-1.50;99.90
7502;DHT22;3792;47.740;7.606;2023-03-01T07:41:48;-1.40;99.90
7502;DHT22;3792;47.740;7.606;2023-03-01T07:44:15;-1.40;99.90
7502;DHT22;3792;47.740;7.606;2023-03-01T07:46:43;-1.30;99.90
7502;DHT22;3792;47.740;7.606;2023-03-01T07:49:10;-1.20;99.90
7502;DHT22;3792;47.740;7.606;2023-03-01T07:51:38;-1.20;99.90
7502;DHT22;3792;47.740;7.606;2023-03-01T07:54:05;-1.20;99.90
7502;DHT22;3792;47.740;7.606;2023-03-01T07:56:32;-1.20;99.90
7502;DHT22;3792;47.740;7.606;2023-03-01T07:59:00;-1.20;99.90
7502;DHT22;3792;47.740;7.606;2023-03-01T08:01:27;-1.10;99.90
7502;DHT22;3792;47.740;7.606;2023-03-01T08:03:54;-0.90;99.90
7502;DHT22;3792;47.740;7.606;2023-03-01T08:06:21;-0.40;99.90
7502;DHT22;3792;47.740;7.606;2023-03-01T08:08:49;0.20;99.90
7502;DHT22;3792;47.740;7.606;2023-03-01T08:11:16;0.60;99.90
7502;DHT22;3792;47.740;7.606;2023-03-01T08:13:43;0.60;99.90
7502;DHT22;3792;47.740;7.606;2023-03-01T08:16:12;0.90;99.90
7502;DHT22;3792;47.740;7.606;2023-03-01T08:18:40;1.20;99.90
7502;DHT22;3792;47.740;7.606;2023-03-01T08:21:09;1.30;99.90
7502;DHT22;3792;47.740;7.606;2023-03-01T08:23:36;1.30;99.90
7502;DHT22;3792;47.740;7.606;2023-03-01T08:26:06;1.10;99.90
7502;DHT22;3792;47.740;7.606;2023-03-01T08:28:34;0.90;99.90
7502;DHT22;3792;47.740;7.606;2023-03-01T08:31:01;0.80;99.90
7502;DHT22;3792;47.740;7.606;2023-03-01T08:33:28;0.70;99.90
7502;DHT22;3792;47.740;7.606;2023-03-01T08:36:03;0.70;99.90
7502;DHT22;3792;47.740;7.606;2023-03-01T08:38:32;0.60;99.90
7502;DHT22;3792;47.740;7.606;2023-03-01T08:41:00;0.50;99.90
7502;DHT22;3792;47.740;7.606;2023-03-01T08:43:29;0.40;99.90
7502;DHT22;3792;47.740;7.606;2023-03-01T08:45:56;0.40;99.90
7502;DHT22;3792;47.740;7.606;2023-03-01T08:48:23;0.40;99.90
7502;DHT22;3792;47.740;7.606;2023-03-01T08:50:50;0.40;99.90
7502;DHT22;3792;47.740;7.606;2023-03-01T08:53:18;0.40;99.90
7502;DHT22;3792;47.740;7.606;2023-03-01T08:55:45;0.20;99.90
7502;DHT22;3792;47.740;7.606;2023-03-01T08:58:12;0.30;99.90
7502;DHT22;3792;47.740;7.606;2023-03-01T09:00:41;0.30;99.90
7502;DHT22;3792;47.740;7.606;2023-03-01T09:03:08;0.30;99.90
7502;DHT22;3792;47.740;7.606;2023-03-01T09:05:35;0.30;99.90
7502;DHT22;3792;47.740;7.606;2023-03-01T09:08:02;0.40;99.90
7502;DHT22;3792;47.740;7.606;2023-03-01T09:10:29;0.50;99.90
7502;DHT22;3792;47.740;7.606;2023-03-01T09:12:56;0.70;99.90
7502;DHT22;3792;47.740;7.606;2023-03-01T09:15:23;0.70;99.90
7502;DHT22;3792;47.740;7.606;2023-03-01T09:17:52;0.70;99.90
7502;DHT22;3792;47.740;7.606;2023-03-01T09:20:19;0.70;99.90
7502;DHT22;3792;47.740;7.606;2023-03-01T09:22:46;0.80;99.90
7502;DHT22;3792;47.740;7.606;2023-03-01T09:25:13;0.90;99.90
7502;DHT22;3792;47.740;7.606;2023-03-01T09:27:40;1.00;99.90
7502;DHT22;3792;47.740;7.606;2023-03-01T09:30:10;1.00;99.90
7502;DHT22;3792;47.740;7.606;2023-03-01T09:32:37;1.00;99.90
7502;DHT22;3792;47.740;7.606;2023-03-01T09:35:09;1.00;99.90
7502;DHT22;3792;47.740;7.606;2023-03-01T09:37:37;1.10;99.90
7502;DHT22;3792;47.740;7.606;2023-03-01T09:40:06;1.20;99.90
7502;DHT22;3792;47.740;7.606;2023-03-01T09:42:35;1.30;99.90
7502;DHT22;3792;47.740;7.606;2023-03-01T09:45:04;1.30;99.90
7502;DHT22;3792;47.740;7.606;2023-03-01T09:47:34;1.40;99.90
7502;DHT22;3792;47.740;7.606;2023-03-01T09:50:04;1.40;99.90
7502;DHT22;3792;47.740;7.606;2023-03-01T09:52:39;1.50;99.90
7502;DHT22;3792;47.740;7.606;2023-03-01T09:55:12;1.50;99.90
7502;DHT22;3792;47.740;7.606;2023-03-01T09:57:46;1.50;99.90
7502;DHT22;3792;47.740;7.606;2023-03-01T10:00:24;1.60;99.90
7502;DHT22;3792;47.740;7.606;2023-03-01T10:03:00;1.70;99.90
7502;DHT22;3792;47.740;7.606;2023-03-01T10:05:39;1.80;99.90
7502;DHT22;3792;47.740;7.606;2023-03-01T10:08:29;1.80;99.90
7502;DHT22;3792;47.740;7.606;2023-03-01T10:10:59;1.90;99.90
7502;DHT22;3792;47.740;7.606;2023-03-01T10:13:33;1.90;99.90
7502;DHT22;3792;47.740;7.606;2023-03-01T10:16:09;2.00;99.90
7502;DHT22;3792;47.740;7.606;2023-03-01T10:18:38;1.90;99.90
7502;DHT22;3792;47.740;7.606;2023-03-01T10:21:13;1.90;99.90
7502;DHT22;3792;47.740;7.606;2023-03-01T10:23:43;2.00;99.90
7502;DHT22;3792;47.740;7.606;2023-03-01T10:26:23;2.00;99.90
7502;DHT22;3792;47.740;7.606;2023-03-01T10:29:00;2.00;99.90
7502;DHT22;3792;47.740;7.606;2023-03-01T10:31:37;2.00;99.90
7502;DHT22;3792;47.740;7.606;2023-03-01T10:34:09;2.00;99.90
7502;DHT22;3792;47.740;7.606;2023-03-01T10:36:38;2.20;99.90
7502;DHT22;3792;47.740;7.606;2023-03-01T10:39:14;2.20;99.90
7502;DHT22;3792;47.740;7.606;2023-03-01T10:41:57;2.30;99.90
7502;DHT22;3792;47.740;7.606;2023-03-01T10:44:43;2.40;99.90
7502;DHT22;3792;47.740;7.606;2023-03-01T10:47:19;2.60;99.90
7502;DHT22;3792;47.740;7.606;2023-03-01T10:49:58;2.70;99.90
7502;DHT22;3792;47.740;7.606;2023-03-01T10:52:29;2.70;99.90
7502;DHT22;3792;47.740;7.606;2023-03-01T10:54:59;2.80;99.90
7502;DHT22;3792;47.740;7.606;2023-03-01T10:57:34;2.80;99.90
7502;DHT22;3792;47.740;7.606;2023-03-01T11:00:17;2.90;99.90
7502;DHT22;3792;47.740;7.606;2023-03-01T11:02:48;3.00;99.90
7502;DHT22;3792;47.740;7.606;2023-03-01T11:05:23;3.10;99.90
7502;DHT22;3792;47.740;7.606;2023-03-01T11:07:53;3.10;99.90
7502;DHT22;3792;47.740;7.606;2023-03-01T11:10:25;3.20;99.90
7502;DHT22;3792;47.740;7.606;2023-03-01T11:12:53;3.20;99.90
7502;DHT22;3792;47.740;7.606;2023-03-01T11:15:23;3.30;99.90
7502;DHT22;3792;47.740;7.606;2023-03-01T11:17:53;3.30;99.90
7502;DHT22;3792;47.740;7.606;2023-03-01T11:20:25;3.30;99.90
7502;DHT22;3792;47.740;7.606;2023-03-01T11:22:55;3.20;99.90
7502;DHT22;3792;47.740;7.606;2023-03-01T11:25:27;3.40;99.90
7502;DHT22;3792;47.740;7.606;2023-03-01T11:27:56;3.40;99.90
7502;DHT22;3792;47.740;7.606;2023-03-01T11:30:26;3.40;99.90
7502;DHT22;3792;47.740;7.606;2023-03-01T11:33:05;3.20;99.90
7502;DHT22;3792;47.740;7.606;2023-03-01T11:35:42;3.20;99.90
7502;DHT22;3792;47.740;7.606;2023-03-01T11:38:19;3.30;99.90
7502;DHT22;3792;47.740;7.606;2023-03-01T11:40:52;3.40;99.90
7502;DHT22;3792;47.740;7.606;2023-03-01T11:43:24;3.50;99.90
7502;DHT22;3792;47.740;7.606;2023-03-01T11:48:49;3.70;99.90
7502;DHT22;3792;47.740;7.606;2023-03-01T11:51:24;3.70;99.90
7502;DHT22;3792;47.740;7.606;2023-03-01T11:54:06;3.80;99.90
7502;DHT22;3792;47.740;7.606;2023-03-01T11:56:40;3.90;99.90
7502;DHT22;3792;47.740;7.606;2023-03-01T11:59:32;3.70;99.90
7502;DHT22;3792;47.740;7.606;2023-03-01T12:02:28;3.60;99.90
7502;DHT22;3792;47.740;7.606;2023-03-01T12:08:07;3.80;99.90
7502;DHT22;3792;47.740;7.606;2023-03-01T12:10:45;3.90;99.90
7502;DHT22;3792;47.740;7.606;2023-03-01T12:13:35;4.00;99.90
7502;DHT22;3792;47.740;7.606;2023-03-01T12:16:40;4.10;99.90
7502;DHT22;3792;47.740;7.606;2023-03-01T12:22:25;4.20;99.90
7502;DHT22;3792;47.740;7.606;2023-03-01T12:25:22;4.30;99.90
7502;DHT22;3792;47.740;7.606;2023-03-01T12:28:18;4.40;99.90
7502;DHT22;3792;47.740;7.606;2023-03-01T12:31:03;4.50;99.90
7502;DHT22;3792;47.740;7.606;2023-03-01T12:33:42;4.50;99.90
7502;DHT22;3792;47.740;7.606;2023-03-01T12:36:26;4.60;99.90
7502;DHT22;3792;47.740;7.606;2023-03-01T12:39:09;4.50;99.90
7502;DHT22;3792;47.740;7.606;2023-03-01T12:41:46;4.50;99.90
7502;DHT22;3792;47.740;7.606;2023-03-01T12:44:37;4.40;99.90
7502;DHT22;3792;47.740;7.606;2023-03-01T12:47:21;4.60;99.90
7502;DHT22;3792;47.740;7.606;2023-03-01T12:49:52;4.60;99.90
7502;DHT22;3792;47.740;7.606;2023-03-01T12:52:25;4.60;99.90
7502;DHT22;3792;47.740;7.606;2023-03-01T12:54:56;4.70;99.90
7502;DHT22;3792;47.740;7.606;2023-03-01T12:57:31;4.80;99.90
7502;DHT22;3792;47.740;7.606;2023-03-01T13:00:17;4.80;99.90
7502;DHT22;3792;47.740;7.606;2023-03-01T13:02:51;4.80;99.90
7502;DHT22;3792;47.740;7.606;2023-03-01T13:05:28;4.80;99.90
7502;DHT22;3792;47.740;7.606;2023-03-01T13:08:03;4.80;99.90
7502;DHT22;3792;47.740;7.606;2023-03-01T13:10:36;4.90;99.90
7502;DHT22;3792;47.740;7.606;2023-03-01T13:13:20;4.90;99.90
7502;DHT22;3792;47.740;7.606;2023-03-01T13:15:47;4.80;99.90
7502;DHT22;3792;47.740;7.606;2023-03-01T13:18:32;4.90;99.90
7502;DHT22;3792;47.740;7.606;2023-03-01T13:21:01;4.80;99.90
7502;DHT22;3792;47.740;7.606;2023-03-01T13:23:33;4.80;99.90
7502;DHT22;3792;47.740;7.606;2023-03-01T13:28:55;4.80;99.90
7502;DHT22;3792;47.740;7.606;2023-03-01T13:37:34;4.80;99.90
7502;DHT22;3792;47.740;7.606;2023-03-01T13:43:27;4.80;99.90
7502;DHT22;3792;47.740;7.606;2023-03-01T13:45:55;4.90;99.90
7502;DHT22;3792;47.740;7.606;2023-03-01T13:48:25;4.90;99.90
7502;DHT22;3792;47.740;7.606;2023-03-01T13:50:58;4.80;99.90
7502;DHT22;3792;47.740;7.606;2023-03-01T13:53:29;4.70;99.90
7502;DHT22;3792;47.740;7.606;2023-03-01T13:56:00;4.70;99.90
7502;DHT22;3792;47.740;7.606;2023-03-01T13:58:30;4.70;99.90
7502;DHT22;3792;47.740;7.606;2023-03-01T14:00:59;4.60;99.90
7502;DHT22;3792;47.740;7.606;2023-03-01T14:03:28;4.30;99.90
7502;DHT22;3792;47.740;7.606;2023-03-01T14:06:03;4.20;99.90
7502;DHT22;3792;47.740;7.606;2023-03-01T14:08:34;4.20;99.90
7502;DHT22;3792;47.740;7.606;2023-03-01T14:11:28;4.30;99.90
7502;DHT22;3792;47.740;7.606;2023-03-01T14:14:17;4.30;99.90
7502;DHT22;3792;47.740;7.606;2023-03-01T14:16:55;4.40;99.90
7502;DHT22;3792;47.740;7.606;2023-03-01T14:19:26;4.40;99.90
7502;DHT22;3792;47.740;7.606;2023-03-01T14:22:05;4.30;99.90
7502;DHT22;3792;47.740;7.606;2023-03-01T14:24:39;4.40;99.90
7502;DHT22;3792;47.740;7.606;2023-03-01T14:27:11;4.40;99.90
7502;DHT22;3792;47.740;7.606;2023-03-01T14:29:39;4.30;99.90
7502;DHT22;3792;47.740;7.606;2023-03-01T14:32:11;4.40;99.90
7502;DHT22;3792;47.740;7.606;2023-03-01T14:34:43;4.30;99.90
7502;DHT22;3792;47.740;7.606;2023-03-01T14:37:19;4.30;99.90
7502;DHT22;3792;47.740;7.606;2023-03-01T14:39:46;4.20;99.90
7502;DHT22;3792;47.740;7.606;2023-03-01T14:42:14;4.20;99.90
7502;DHT22;3792;47.740;7.606;2023-03-01T14:44:42;4.30;99.90
7502;DHT22;3792;47.740;7.606;2023-03-01T14:47:12;4.30;99.90
7502;DHT22;3792;47.740;7.606;2023-03-01T14:49:42;4.30;99.90
7502;DHT22;3792;47.740;7.606;2023-03-01T14:52:19;4.30;99.90
7502;DHT22;3792;47.740;7.606;2023-03-01T14:54:48;4.40;99.90
7502;DHT22;3792;47.740;7.606;2023-03-01T14:57:18;4.40;99.90
7502;DHT22;3792;47.740;7.606;2023-03-01T14:59:47;4.40;99.90
7502;DHT22;3792;47.740;7.606;2023-03-01T15:02:18;4.40;99.90
7502;DHT22;3792;47.740;7.606;2023-03-01T15:04:48;4.40;99.90
7502;DHT22;3792;47.740;7.606;2023-03-01T15:07:17;4.30;99.90
7502;DHT22;3792;47.740;7.606;2023-03-01T15:09:45;4.30;99.90
7502;DHT22;3792;47.740;7.606;2023-03-01T15:12:35;4.30;99.90
7502;DHT22;3792;47.740;7.606;2023-03-01T15:15:20;4.20;99.90
7502;DHT22;3792;47.740;7.606;2023-03-01T15:17:52;4.20;99.90
7502;DHT22;3792;47.740;7.606;2023-03-01T15:20:23;4.10;99.90
7502;DHT22;3792;47.740;7.606;2023-03-01T15:22:55;4.10;99.90
7502;DHT22;3792;47.740;7.606;2023-03-01T15:25:25;4.10;99.90
7502;DHT22;3792;47.740;7.606;2023-03-01T15:27:54;4.10;99.90
7502;DHT22;3792;47.740;7.606;2023-03-01T15:30:23;4.20;99.90
7502;DHT22;3792;47.740;7.606;2023-03-01T15:33:19;4.20;99.90
7502;DHT22;3792;47.740;7.606;2023-03-01T15:35:48;4.20;99.90
7502;DHT22;3792;47.740;7.606;2023-03-01T15:38:35;4.30;99.90
7502;DHT22;3792;47.740;7.606;2023-03-01T15:41:19;4.30;99.90
7502;DHT22;3792;47.740;7.606;2023-03-01T15:43:48;4.40;99.90
7502;DHT22;3792;47.740;7.606;2023-03-01T15:46:27;4.50;99.90
7502;DHT22;3792;47.740;7.606;2023-03-01T15:48:57;4.60;99.90
7502;DHT22;3792;47.740;7.606;2023-03-01T15:51:30;4.60;99.90
7502;DHT22;3792;47.740;7.606;2023-03-01T15:54:02;4.70;99.90
7502;DHT22;3792;47.740;7.606;2023-03-01T15:56:29;4.80;99.90
7502;DHT22;3792;47.740;7.606;2023-03-01T15:59:01;4.90;99.90
7502;DHT22;3792;47.740;7.606;2023-03-01T16:01:29;5.10;99.90
7502;DHT22;3792;47.740;7.606;2023-03-01T16:03:56;5.30;99.90
7502;DHT22;3792;47.740;7.606;2023-03-01T16:06:24;5.50;99.90
7502;DHT22;3792;47.740;7.606;2023-03-01T16:08:52;5.40;99.90
7502;DHT22;3792;47.740;7.606;2023-03-01T16:11:21;5.40;99.90
7502;DHT22;3792;47.740;7.606;2023-03-01T16:13:49;5.30;99.90
7502;DHT22;3792;47.740;7.606;2023-03-01T16:16:16;5.10;99.90
7502;DHT22;3792;47.740;7.606;2023-03-01T16:18:45;5.00;99.90
7502;DHT22;3792;47.740;7.606;2023-03-01T16:21:14;4.90;99.90
7502;DHT22;3792;47.740;7.606;2023-03-01T16:23:43;4.80;99.90
7502;DHT22;3792;47.740;7.606;2023-03-01T16:26:10;4.70;99.90
7502;DHT22;3792;47.740;7.606;2023-03-01T16:28:40;4.50;99.90
7502;DHT22;3792;47.740;7.606;2023-03-01T16:31:08;4.40;99.90
7502;DHT22;3792;47.740;7.606;2023-03-01T16:33:35;4.20;99.90
7502;DHT22;3792;47.740;7.606;2023-03-01T16:36:07;4.10;99.90
7502;DHT22;3792;47.740;7.606;2023-03-01T16:38:35;4.00;99.90
7502;DHT22;3792;47.740;7.606;2023-03-01T16:41:02;4.00;99.90
7502;DHT22;3792;47.740;7.606;2023-03-01T16:43:29;4.00;99.90
7502;DHT22;3792;47.740;7.606;2023-03-01T16:45:58;3.80;99.90
7502;DHT22;3792;47.740;7.606;2023-03-01T16:48:25;3.80;99.90
7502;DHT22;3792;47.740;7.606;2023-03-01T16:50:57;3.70;99.90
7502;DHT22;3792;47.740;7.606;2023-03-01T16:53:24;3.70;99.90